createdAt,value
2018-07-05T00:01:14.577Z,29.48
2018-07-05T00:04:06.406Z,29.46
2018-07-05T00:07:01.254Z,29.44
2018-07-05T00:09:52.352Z,29.40
2018-07-05T00:12:45.274Z,29.40
2018-07-05T00:15:38.606Z,29.39
2018-07-05T00:40:23.923Z,28.89
2018-07-05T00:43:14.869Z,28.88
2018-07-05T00:46:07.899Z,28.93
2018-07-05T00:48:58.965Z,28.98
2018-07-05T01:14:53.504Z,28.74
2018-07-05T01:30:53.941Z,28.64
2018-07-05T01:33:46.385Z,28.64
2018-07-05T01:36:39.840Z,28.69
2018-07-05T01:39:32.588Z,28.74
2018-07-05T01:42:23.366Z,28.77
2018-07-05T01:45:14.361Z,28.80
2018-07-05T01:48:05.822Z,28.83
2018-07-05T01:50:56.500Z,28.85
2018-07-05T01:53:50.176Z,28.86
2018-07-05T02:06:37.398Z,28.71
2018-07-05T02:09:31.335Z,28.67
2018-07-05T02:12:23.300Z,28.67
2018-07-05T02:15:15.361Z,28.70
2018-07-05T02:18:08.343Z,28.71
2018-07-05T02:21:01.691Z,28.72
2018-07-05T02:23:51.954Z,28.76
2018-07-05T02:26:43.438Z,28.78
2018-07-05T02:29:34.981Z,28.78
2018-07-05T02:32:25.541Z,28.78
2018-07-05T02:35:15.878Z,28.78
2018-07-05T02:38:09.999Z,28.76
2018-07-05T02:41:00.961Z,28.75
2018-07-05T02:43:51.826Z,28.73
2018-07-05T02:46:44.181Z,28.73
2018-07-05T02:49:38.927Z,28.73
2018-07-05T02:52:29.522Z,28.75
2018-07-05T02:55:19.766Z,28.74
2018-07-05T02:58:13.542Z,28.73
2018-07-05T03:01:04.185Z,28.74
2018-07-05T03:03:56.118Z,28.72
2018-07-05T03:06:46.990Z,28.71
2018-07-05T03:09:38.897Z,28.75
2018-07-05T03:12:32.365Z,28.77
2018-07-05T03:15:24.202Z,28.81
2018-07-05T03:18:15.652Z,28.84
2018-07-05T03:21:07.181Z,28.88
2018-07-05T03:24:00.911Z,28.89
2018-07-05T03:49:55.365Z,28.62
2018-07-05T03:52:49.361Z,28.62
2018-07-05T03:55:39.988Z,28.67
2018-07-05T03:58:30.020Z,28.73
2018-07-05T04:01:24.501Z,28.76
2018-07-05T04:04:15.942Z,28.81
2018-07-05T04:07:09.584Z,28.82
2018-07-05T04:10:00.801Z,28.86
2018-07-05T04:12:53.950Z,28.89
2018-07-05T04:15:46.591Z,28.93
2018-07-05T04:18:41.937Z,29.02
2018-07-05T04:21:33.422Z,29.10
2018-07-05T04:24:27.976Z,29.11
2018-07-05T04:27:20.795Z,28.29
2018-07-05T04:30:20.598Z,28.95
2018-07-05T04:33:14.939Z,29.23
2018-07-05T04:36:06.504Z,29.40
2018-07-05T04:41:57.707Z,29.65
2018-07-05T04:44:50.585Z,29.74
2018-07-05T04:47:51.242Z,29.81
2018-07-05T04:50:42.568Z,29.90
2018-07-05T04:53:32.599Z,29.97
2018-07-05T04:56:26.497Z,30.02
2018-07-05T04:59:20.603Z,30.09
2018-07-05T05:02:15.809Z,30.15
2018-07-05T05:11:28.295Z,30.33
2018-07-05T05:14:26.519Z,30.35
2018-07-05T05:17:22.418Z,30.41
2018-07-05T05:20:13.848Z,30.45
2018-07-05T05:23:13.391Z,30.48
2018-07-05T05:26:07.277Z,30.53
2018-07-05T05:29:02.627Z,30.56
2018-07-05T05:31:55.083Z,30.60
2018-07-05T05:34:48.777Z,30.63
2018-07-05T05:37:39.528Z,30.68
2018-07-05T05:40:31.405Z,30.70
2018-07-05T05:43:21.801Z,30.74
2018-07-05T05:46:13.155Z,30.78
2018-07-05T06:12:10.098Z,30.66
2018-07-05T06:18:16.071Z,30.73
2018-07-05T06:21:08.277Z,30.81
2018-07-05T06:24:00.891Z,30.84
2018-07-05T06:26:53.135Z,30.88
2018-07-05T06:29:47.197Z,30.91
2018-07-05T06:32:38.182Z,30.94
2018-07-05T06:35:32.018Z,30.97
2018-07-05T06:38:22.828Z,30.99
2018-07-05T06:41:14.139Z,31.01
2018-07-05T06:44:04.590Z,31.04
2018-07-05T06:46:58.489Z,31.05
2018-07-05T06:49:43.687Z,31.08
2018-07-05T06:52:36.632Z,31.10
2018-07-05T06:55:28.007Z,31.11
2018-07-05T06:58:23.306Z,31.13
2018-07-05T07:01:14.698Z,31.15
2018-07-05T07:04:09.266Z,31.17
2018-07-05T07:07:02.970Z,31.17
2018-07-05T18:08:38.937Z,32.68
2018-07-05T18:11:33.047Z,32.65
2018-07-05T18:14:22.906Z,32.62
2018-07-05T18:17:12.914Z,32.62
2018-07-05T18:20:03.229Z,32.61
2018-07-05T18:22:54.031Z,32.60
2018-07-05T18:25:59.876Z,32.57
2018-07-05T18:29:15.161Z,32.57
2018-07-05T18:32:07.605Z,32.58
2018-07-05T21:36:58.439Z,28.79
2018-07-05T22:24:28.384Z,27.72
2018-07-05T22:27:25.875Z,27.69
2018-07-05T22:33:27.002Z,27.52
